createdAt,value
2017-09-29T00:01:57.738Z,16.70
2017-09-29T00:04:25.315Z,16.70
2017-09-29T00:06:52.878Z,16.70
2017-09-29T00:09:20.480Z,16.70
2017-09-29T00:11:49.097Z,16.70
2017-09-29T00:14:16.698Z,16.70
2017-09-29T00:16:44.271Z,16.60
2017-09-29T00:39:28.939Z,16.70
2017-09-29T00:41:56.706Z,16.70
2017-09-29T00:44:24.282Z,16.60
2017-09-29T00:46:52.910Z,16.60
2017-09-29T00:55:43.598Z,16.60
2017-09-29T00:58:11.170Z,16.60
2017-09-29T01:00:38.765Z,16.60
2017-09-29T01:03:06.359Z,16.60
2017-09-29T01:05:34.721Z,16.60
2017-09-29T01:08:02.312Z,16.60
2017-09-29T01:10:29.899Z,16.50
2017-09-29T01:12:57.498Z,16.50
2017-09-29T01:15:25.087Z,16.50
2017-09-29T01:17:53.450Z,16.60
2017-09-29T01:31:53.866Z,16.70
2017-09-29T01:34:21.413Z,16.70
2017-09-29T01:36:48.971Z,16.70
2017-09-29T01:39:16.569Z,16.70
2017-09-29T01:41:44.907Z,16.70
2017-09-29T01:44:12.464Z,16.70
2017-09-29T01:46:40.037Z,16.60
2017-09-29T01:49:07.597Z,16.60
2017-09-29T01:51:35.155Z,16.60
2017-09-29T01:54:02.723Z,16.60
2017-09-29T01:56:31.042Z,16.50
2017-09-29T01:58:58.616Z,16.50
2017-09-29T02:01:26.202Z,16.50
2017-09-29T02:03:53.763Z,16.60
2017-09-29T02:06:21.339Z,16.60
2017-09-29T02:08:48.894Z,16.60
2017-09-29T02:11:16.558Z,16.50
2017-09-29T02:13:44.114Z,16.50
2017-09-29T02:16:11.696Z,16.50
2017-09-29T02:24:48.496Z,16.50
2017-09-29T02:27:16.062Z,16.50
2017-09-29T02:29:43.677Z,16.50
2017-09-29T02:32:12.014Z,16.50
2017-09-29T02:34:39.579Z,16.50
2017-09-29T02:37:07.268Z,16.50
2017-09-29T02:39:34.926Z,16.50
2017-09-29T02:42:02.484Z,16.50
2017-09-29T02:44:30.038Z,16.50
2017-09-29T02:46:57.600Z,16.50
2017-09-29T02:55:11.715Z,16.50
2017-09-29T02:57:41.592Z,16.50
2017-09-29T03:00:12.362Z,16.50
2017-09-29T03:02:41.618Z,16.50
2017-09-29T03:05:14.030Z,16.50
2017-09-29T03:07:41.584Z,16.50
2017-09-29T03:10:09.186Z,16.50
2017-09-29T03:12:37.532Z,16.50
2017-09-29T03:15:05.082Z,16.60
2017-09-29T03:17:32.722Z,16.50
2017-09-29T03:22:57.350Z,16.50
2017-09-29T03:25:24.926Z,16.50
2017-09-29T03:27:52.507Z,16.50
2017-09-29T03:30:21.385Z,16.50
2017-09-29T03:32:49.064Z,16.50
2017-09-29T03:35:16.590Z,16.50
2017-09-29T03:37:44.169Z,16.50
2017-09-29T03:40:11.762Z,16.50
2017-09-29T03:42:39.365Z,16.50
2017-09-29T03:45:06.922Z,16.50
2017-09-29T03:47:34.489Z,16.50
2017-09-29T03:50:03.623Z,16.50
2017-09-29T03:52:32.288Z,16.50
2017-09-29T03:55:00.790Z,16.50
2017-09-29T03:57:31.138Z,16.50
2017-09-29T03:59:58.743Z,16.50
2017-09-29T04:02:26.302Z,16.50
2017-09-29T04:04:53.866Z,16.50
2017-09-29T04:07:21.603Z,16.50
2017-09-29T04:09:49.151Z,16.50
2017-09-29T04:12:16.734Z,16.50
2017-09-29T04:14:44.303Z,16.40
2017-09-29T04:17:12.645Z,16.30
2017-09-29T04:19:40.242Z,16.30
2017-09-29T04:22:07.804Z,16.30
2017-09-29T04:24:35.402Z,16.30
2017-09-29T04:33:16.296Z,16.30
2017-09-29T04:35:43.938Z,16.30
2017-09-29T04:38:11.507Z,16.30
2017-09-29T04:40:39.083Z,16.30
2017-09-29T04:43:07.423Z,16.30
2017-09-29T04:45:34.994Z,16.30
2017-09-29T04:48:02.584Z,16.30
2017-09-29T04:50:30.176Z,16.20
2017-09-29T04:52:57.754Z,16.30
2017-09-29T04:55:25.325Z,16.30
2017-09-29T04:57:52.905Z,16.30
2017-09-29T05:00:20.510Z,16.20
2017-09-29T05:02:48.074Z,16.20
2017-09-29T05:05:16.423Z,16.10
2017-09-29T05:07:44.805Z,16.10
2017-09-29T05:10:12.385Z,16.00
2017-09-29T05:12:39.958Z,16.00
2017-09-29T05:15:08.334Z,16.00
2017-09-29T05:17:35.914Z,16.00
2017-09-29T05:20:03.470Z,15.90
2017-09-29T05:22:31.827Z,15.70
2017-09-29T05:25:00.162Z,15.80
2017-09-29T05:27:27.744Z,15.80
2017-09-29T05:29:55.342Z,15.70
2017-09-29T05:32:23.687Z,15.50
2017-09-29T05:34:51.257Z,15.50
2017-09-29T05:37:18.838Z,15.50
2017-09-29T05:39:46.403Z,15.40
2017-09-29T05:42:13.997Z,15.30
2017-09-29T05:44:41.558Z,15.30
2017-09-29T05:47:09.143Z,15.20
2017-09-29T05:49:36.759Z,15.10
2017-09-29T05:52:04.324Z,15.10
2017-09-29T05:54:31.906Z,15.00
2017-09-29T05:56:59.476Z,15.20
2017-09-29T05:59:27.058Z,15.30
2017-09-29T06:01:54.640Z,15.40
2017-09-29T06:04:22.231Z,15.60
2017-09-29T06:06:50.579Z,15.80
2017-09-29T06:09:18.154Z,15.80
2017-09-29T06:11:45.748Z,15.90
2017-09-29T06:14:14.139Z,16.00
2017-09-29T06:16:41.742Z,16.00
2017-09-29T06:19:09.329Z,16.00
2017-09-29T06:21:36.883Z,16.10
2017-09-29T06:24:04.476Z,16.20
2017-09-29T06:26:32.802Z,16.30
2017-09-29T06:29:00.402Z,16.30
2017-09-29T06:31:27.963Z,16.40
2017-09-29T06:33:55.531Z,16.50
2017-09-29T06:36:23.117Z,16.50
2017-09-29T06:38:50.679Z,16.50
2017-09-29T06:41:18.262Z,16.60
2017-09-29T06:43:45.842Z,16.60
2017-09-29T06:46:13.408Z,16.70
2017-09-29T06:48:40.997Z,16.70
2017-09-29T06:51:09.326Z,16.80
2017-09-29T06:53:36.919Z,16.80
2017-09-29T06:56:04.559Z,16.90
2017-09-29T06:58:32.177Z,16.90
2017-09-29T07:01:00.508Z,17.00
2017-09-29T07:03:28.087Z,17.00
2017-09-29T07:05:55.686Z,17.00
2017-09-29T07:08:23.289Z,17.00
2017-09-29T07:10:50.907Z,17.00
2017-09-29T07:13:18.649Z,17.00
2017-09-29T07:15:46.221Z,17.00
2017-09-29T07:18:14.557Z,17.00
2017-09-29T07:20:42.151Z,17.00
2017-09-29T07:23:09.722Z,17.00
2017-09-29T07:25:41.320Z,17.00
2017-09-29T07:28:11.536Z,17.00
2017-09-29T07:30:41.817Z,17.00
2017-09-29T07:33:09.413Z,17.00
2017-09-29T07:35:37.758Z,17.10
2017-09-29T07:38:05.346Z,17.00
2017-09-29T07:40:33.677Z,17.10
2017-09-29T07:43:01.314Z,17.10
2017-09-29T07:45:28.895Z,17.10
2017-09-29T07:47:56.491Z,17.20
2017-09-29T07:50:24.054Z,17.20
2017-09-29T07:52:51.653Z,17.30
2017-09-29T07:55:20.010Z,17.40
2017-09-29T07:57:47.574Z,17.40
2017-09-29T08:00:15.248Z,17.50
2017-09-29T08:02:43.571Z,17.50
2017-09-29T08:05:11.154Z,17.50
2017-09-29T08:07:38.718Z,17.60
2017-09-29T08:10:06.320Z,17.70
2017-09-29T08:12:34.658Z,17.80
2017-09-29T08:15:02.228Z,17.80
2017-09-29T08:17:29.818Z,17.90
2017-09-29T08:19:58.188Z,18.00
2017-09-29T08:22:26.014Z,18.00
2017-09-29T08:24:53.630Z,18.20
2017-09-29T08:27:22.004Z,18.60
2017-09-29T08:29:50.390Z,19.00
2017-09-29T08:32:18.714Z,19.50
2017-09-29T08:34:46.327Z,19.50
2017-09-29T08:37:14.674Z,20.40
2017-09-29T08:39:42.293Z,20.30
2017-09-29T08:42:10.640Z,21.70
2017-09-29T08:44:38.231Z,21.70
2017-09-29T08:47:06.616Z,22.60
2017-09-29T08:49:34.945Z,23.10
2017-09-29T08:52:02.529Z,23.10
2017-09-29T08:54:30.196Z,23.70
2017-09-29T08:56:57.768Z,23.30
2017-09-29T08:59:26.138Z,23.20
2017-09-29T09:01:53.696Z,23.20
2017-09-29T09:04:21.286Z,24.00
2017-09-29T09:06:49.609Z,24.00
2017-09-29T09:09:17.217Z,23.90
2017-09-29T09:11:45.414Z,23.90
2017-09-29T09:14:13.740Z,23.50
2017-09-29T09:16:41.483Z,23.50
2017-09-29T09:19:09.092Z,23.70
2017-09-29T09:21:37.442Z,23.50
2017-09-29T09:24:05.027Z,23.50
2017-09-29T09:26:32.622Z,24.00
2017-09-29T09:29:00.943Z,24.90
2017-09-29T09:31:28.523Z,24.90
2017-09-29T09:33:56.257Z,25.10
2017-09-29T09:36:23.828Z,25.00
2017-09-29T09:38:51.398Z,25.40
2017-09-29T09:41:18.927Z,25.30
2017-09-29T09:43:46.571Z,25.10
2017-09-29T09:46:14.194Z,24.70
2017-09-29T09:48:41.786Z,24.50
2017-09-29T09:51:10.098Z,23.10
2017-09-29T09:53:37.659Z,23.10
2017-09-29T09:56:05.251Z,22.70
2017-09-29T09:58:32.811Z,22.30
2017-09-29T10:01:00.425Z,21.90
2017-09-29T10:03:28.797Z,23.20
2017-09-29T10:05:56.359Z,23.20
2017-09-29T10:08:24.710Z,24.40
2017-09-29T10:10:52.311Z,24.40
2017-09-29T10:13:20.633Z,25.10
2017-09-29T10:15:48.244Z,25.10
2017-09-29T10:18:15.842Z,26.00
2017-09-29T10:20:43.440Z,26.00
2017-09-29T10:23:11.008Z,26.20
2017-09-29T10:25:41.486Z,26.20
2017-09-29T10:28:09.820Z,26.60
2017-09-29T10:30:37.408Z,26.60
2017-09-29T10:33:04.979Z,26.60
2017-09-29T10:35:33.304Z,26.50
2017-09-29T10:38:00.871Z,26.50
2017-09-29T10:40:28.454Z,27.00
2017-09-29T10:42:56.319Z,26.50
2017-09-29T10:45:23.885Z,26.20
2017-09-29T10:47:51.432Z,26.00
2017-09-29T10:50:19.005Z,26.10
2017-09-29T10:52:46.570Z,26.10
2017-09-29T10:55:14.154Z,25.50
2017-09-29T10:57:41.714Z,25.70
2017-09-29T11:00:09.305Z,25.90
2017-09-29T11:02:37.638Z,26.00
2017-09-29T11:05:05.186Z,26.00
2017-09-29T11:07:32.782Z,25.30
2017-09-29T11:10:01.119Z,24.70
2017-09-29T11:12:28.705Z,24.70
2017-09-29T11:14:56.307Z,25.00
2017-09-29T11:17:24.631Z,26.40
2017-09-29T11:19:52.214Z,26.40
2017-09-29T11:22:19.787Z,26.10
2017-09-29T11:24:47.368Z,26.10
2017-09-29T11:27:15.747Z,26.20
2017-09-29T11:29:43.319Z,26.20
2017-09-29T11:32:11.663Z,26.20
2017-09-29T11:34:39.249Z,26.20
2017-09-29T11:37:06.842Z,26.80
2017-09-29T11:39:35.317Z,27.90
2017-09-29T11:42:03.669Z,27.90
2017-09-29T11:44:31.215Z,27.80
2017-09-29T11:46:58.958Z,27.10
2017-09-29T11:49:26.548Z,27.40
2017-09-29T11:51:54.161Z,27.70
2017-09-29T11:54:22.495Z,26.60
2017-09-29T11:56:50.078Z,26.60
2017-09-29T11:59:17.662Z,26.60
2017-09-29T12:01:46.018Z,25.40
2017-09-29T12:04:13.681Z,25.40
2017-09-29T12:06:42.203Z,25.50
2017-09-29T12:09:09.759Z,25.40
2017-09-29T12:11:38.126Z,25.50
2017-09-29T12:14:06.448Z,25.70
2017-09-29T12:16:34.035Z,25.70
2017-09-29T12:19:01.598Z,25.80
2017-09-29T12:21:29.182Z,26.10
2017-09-29T12:23:56.826Z,25.90
2017-09-29T12:26:24.409Z,25.80
2017-09-29T12:28:52.002Z,26.40
2017-09-29T12:31:19.789Z,26.20
2017-09-29T12:33:47.378Z,25.80
2017-09-29T12:36:14.955Z,25.80
2017-09-29T12:38:43.409Z,26.30
2017-09-29T12:41:11.077Z,26.30
2017-09-29T12:43:38.672Z,26.20
2017-09-29T12:46:07.018Z,25.60
2017-09-29T12:48:34.574Z,25.60
2017-09-29T12:51:03.028Z,26.80
2017-09-29T12:53:30.666Z,26.70
2017-09-29T12:55:58.992Z,25.80
2017-09-29T12:58:26.593Z,25.80
2017-09-29T13:00:54.163Z,25.70
2017-09-29T13:03:22.547Z,26.10
2017-09-29T13:05:50.903Z,26.40
2017-09-29T13:08:18.471Z,26.40
2017-09-29T13:10:47.006Z,26.50
2017-09-29T13:13:14.564Z,26.50
2017-09-29T13:15:42.187Z,26.40
2017-09-29T13:18:09.810Z,26.60
2017-09-29T13:20:37.386Z,26.40
2017-09-29T13:23:05.059Z,26.60
2017-09-29T13:25:32.641Z,26.70
2017-09-29T13:28:00.196Z,26.90
2017-09-29T13:30:27.797Z,26.80
2017-09-29T13:32:56.308Z,27.40
2017-09-29T13:35:23.979Z,27.40
2017-09-29T13:37:51.596Z,27.40
2017-09-29T13:40:19.207Z,27.70
2017-09-29T13:42:46.947Z,27.30
2017-09-29T13:45:14.560Z,27.20
2017-09-29T13:47:42.139Z,27.40
2017-09-29T13:50:09.704Z,27.60
2017-09-29T13:52:37.295Z,27.90
2017-09-29T13:55:04.863Z,27.40
2017-09-29T13:57:32.483Z,27.60
2017-09-29T14:00:00.054Z,27.40
2017-09-29T14:02:27.637Z,27.80
2017-09-29T14:04:55.202Z,27.30
2017-09-29T14:07:22.769Z,26.30
2017-09-29T14:09:50.361Z,25.70
2017-09-29T14:12:18.757Z,25.50
2017-09-29T14:14:46.398Z,25.50
2017-09-29T14:17:13.997Z,25.70
2017-09-29T14:19:42.375Z,25.60
2017-09-29T14:22:10.028Z,25.50
2017-09-29T14:24:37.603Z,25.60
2017-09-29T14:27:05.198Z,25.50
2017-09-29T14:29:33.539Z,25.30
2017-09-29T14:32:01.131Z,25.30
2017-09-29T14:34:28.734Z,24.80
2017-09-29T14:36:56.315Z,24.80
2017-09-29T14:39:23.869Z,24.70
2017-09-29T14:41:51.446Z,24.50
2017-09-29T14:44:19.023Z,24.30
2017-09-29T14:46:46.585Z,24.30
2017-09-29T14:49:14.147Z,24.30
2017-09-29T14:51:41.745Z,24.50
2017-09-29T14:54:10.076Z,24.60
2017-09-29T14:56:37.631Z,24.60
2017-09-29T14:59:05.219Z,24.70
2017-09-29T15:01:32.785Z,25.00
2017-09-29T15:04:00.347Z,25.00
2017-09-29T15:06:27.934Z,25.10
2017-09-29T15:08:56.263Z,24.70
2017-09-29T15:11:23.847Z,24.70
2017-09-29T15:13:51.439Z,24.70
2017-09-29T15:16:19.769Z,24.50
2017-09-29T15:18:47.319Z,24.50
2017-09-29T15:21:14.909Z,24.50
2017-09-29T15:23:42.545Z,24.40
2017-09-29T15:26:10.114Z,24.40
2017-09-29T15:28:37.771Z,24.20
2017-09-29T15:31:05.365Z,24.10
2017-09-29T15:33:32.996Z,24.00
2017-09-29T15:36:00.574Z,23.90
2017-09-29T15:38:28.172Z,23.90
2017-09-29T15:40:55.742Z,23.80
2017-09-29T15:43:23.314Z,23.70
2017-09-29T15:45:51.653Z,23.60
2017-09-29T15:48:19.486Z,23.60
2017-09-29T15:50:47.558Z,23.50
2017-09-29T15:53:15.884Z,23.60
2017-09-29T15:55:43.478Z,23.50
2017-09-29T15:58:11.053Z,23.60
2017-09-29T16:00:38.829Z,23.60
2017-09-29T16:03:07.151Z,23.60
2017-09-29T16:05:34.748Z,23.60
2017-09-29T16:08:02.337Z,23.60
2017-09-29T16:10:29.898Z,23.60
2017-09-29T16:12:57.474Z,23.70
2017-09-29T16:15:25.077Z,23.70
2017-09-29T16:17:52.642Z,23.60
2017-09-29T16:20:20.230Z,23.60
2017-09-29T16:22:48.561Z,23.60
2017-09-29T16:25:16.183Z,23.60
2017-09-29T16:27:44.523Z,23.50
2017-09-29T16:30:12.995Z,23.60
2017-09-29T16:32:40.591Z,23.50
2017-09-29T16:35:08.166Z,23.40
2017-09-29T16:37:36.603Z,23.40
2017-09-29T16:40:04.210Z,23.30
2017-09-29T16:42:32.574Z,23.30
2017-09-29T16:45:00.174Z,23.20
2017-09-29T16:47:28.528Z,23.10
2017-09-29T16:49:56.142Z,23.10
2017-09-29T16:52:23.718Z,23.10
2017-09-29T16:54:51.291Z,23.10
2017-09-29T16:57:18.881Z,23.00
2017-09-29T16:59:46.608Z,22.80
2017-09-29T17:02:14.257Z,22.70
2017-09-29T17:04:41.843Z,22.60
2017-09-29T17:07:09.447Z,22.50
2017-09-29T17:09:37.000Z,22.40
2017-09-29T17:12:04.616Z,22.30
2017-09-29T17:14:32.190Z,22.40
2017-09-29T17:16:59.790Z,22.40
2017-09-29T17:19:28.165Z,22.40
2017-09-29T17:21:55.726Z,22.30
2017-09-29T17:24:24.285Z,22.40
2017-09-29T17:26:51.881Z,22.40
2017-09-29T17:29:20.276Z,22.40
2017-09-29T17:31:48.603Z,22.30
2017-09-29T17:34:16.214Z,22.30
2017-09-29T17:36:44.574Z,22.10
2017-09-29T17:39:12.158Z,22.10
2017-09-29T17:41:39.773Z,22.10
2017-09-29T17:44:07.527Z,22.00
2017-09-29T17:46:35.100Z,22.00
2017-09-29T17:49:02.782Z,21.90
2017-09-29T17:51:30.370Z,21.80
2017-09-29T17:53:58.903Z,21.80
2017-09-29T17:56:26.524Z,21.80
2017-09-29T17:58:54.176Z,21.80
2017-09-29T18:01:21.750Z,21.70
2017-09-29T18:03:49.747Z,21.70
2017-09-29T18:06:17.471Z,21.70
2017-09-29T18:08:52.029Z,21.60
2017-09-29T18:11:20.396Z,21.50
2017-09-29T18:13:48.735Z,21.40
2017-09-29T18:16:16.331Z,21.40
2017-09-29T18:18:43.986Z,21.40
2017-09-29T18:21:11.812Z,21.40
2017-09-29T18:23:39.885Z,21.40
2017-09-29T18:26:07.757Z,21.30
2017-09-29T18:28:35.729Z,21.30
2017-09-29T18:31:03.818Z,21.30
2017-09-29T18:33:31.463Z,21.30
2017-09-29T18:35:59.042Z,21.30
2017-09-29T18:38:27.002Z,21.20
2017-09-29T18:40:58.863Z,21.20
2017-09-29T18:43:28.452Z,21.20
2017-09-29T18:46:05.934Z,21.30
2017-09-29T18:48:34.557Z,21.20
2017-09-29T18:51:02.178Z,21.20
2017-09-29T18:53:30.584Z,21.10
2017-09-29T18:55:59.292Z,21.20
2017-09-29T18:58:27.362Z,21.10
2017-09-29T19:00:55.285Z,21.20
2017-09-29T19:03:23.257Z,21.10
2017-09-29T19:05:51.330Z,21.10
2017-09-29T19:08:18.974Z,21.10
2017-09-29T19:10:46.643Z,21.10
2017-09-29T19:13:14.256Z,21.20
2017-09-29T19:15:41.854Z,21.10
2017-09-29T19:18:09.570Z,21.10
2017-09-29T19:20:37.185Z,21.00
2017-09-29T19:23:05.522Z,21.00
2017-09-29T19:25:33.161Z,21.00
2017-09-29T19:28:00.722Z,20.90
2017-09-29T19:30:28.295Z,20.90
2017-09-29T19:32:55.909Z,20.90
2017-09-29T19:35:23.486Z,20.90
2017-09-29T19:37:51.950Z,20.80
2017-09-29T19:40:20.462Z,20.80
2017-09-29T19:42:48.860Z,20.80
2017-09-29T19:45:16.605Z,20.80
2017-09-29T19:47:44.166Z,20.70
2017-09-29T19:50:12.981Z,20.70
2017-09-29T19:52:40.989Z,20.70
2017-09-29T19:55:09.389Z,20.60
2017-09-29T19:57:36.951Z,20.60
2017-09-29T20:00:04.695Z,20.60
2017-09-29T20:02:44.008Z,20.50
2017-09-29T20:05:13.736Z,20.40
2017-09-29T20:07:41.447Z,20.40
2017-09-29T20:10:09.831Z,20.10
2017-09-29T20:12:49.715Z,20.10
2017-09-29T20:15:17.310Z,20.10
2017-09-29T20:17:44.954Z,20.10
2017-09-29T20:20:12.536Z,20.10
2017-09-29T20:22:40.139Z,20.10
2017-09-29T20:25:08.532Z,20.10
2017-09-29T20:27:36.094Z,20.10
2017-09-29T20:30:03.642Z,20.10
2017-09-29T20:32:31.339Z,20.20
2017-09-29T20:34:58.959Z,20.20
2017-09-29T20:37:26.556Z,20.20
2017-09-29T20:39:54.184Z,20.20
2017-09-29T20:42:21.757Z,20.20
2017-09-29T20:44:49.360Z,20.20
2017-09-29T20:47:16.936Z,20.20
2017-09-29T20:49:44.522Z,20.20
2017-09-29T20:52:12.848Z,20.10
2017-09-29T20:54:40.466Z,20.10
2017-09-29T20:57:08.794Z,20.10
2017-09-29T20:59:37.476Z,20.00
2017-09-29T21:02:05.278Z,20.00
2017-09-29T21:04:32.854Z,20.00
2017-09-29T21:07:01.204Z,20.00
2017-09-29T21:09:28.818Z,20.00
2017-09-29T21:11:56.438Z,20.00
2017-09-29T21:14:24.201Z,19.90
2017-09-29T21:16:51.918Z,20.00
2017-09-29T21:19:19.673Z,20.00
2017-09-29T21:21:47.303Z,19.90
2017-09-29T21:24:15.115Z,19.80
2017-09-29T21:26:43.454Z,19.80
2017-09-29T21:29:11.015Z,19.80
2017-09-29T21:31:38.622Z,19.80
2017-09-29T21:34:06.188Z,19.80
2017-09-29T21:36:33.778Z,19.80
2017-09-29T21:39:01.575Z,19.80
2017-09-29T21:41:29.923Z,19.80
2017-09-29T21:43:57.535Z,19.70
2017-09-29T21:46:25.924Z,19.70
2017-09-29T21:48:53.539Z,19.70
2017-09-29T21:51:21.145Z,19.70
2017-09-29T21:53:49.502Z,19.70
2017-09-29T21:56:17.057Z,19.60
2017-09-29T21:58:44.617Z,19.70
2017-09-29T22:01:12.174Z,19.70
2017-09-29T22:03:39.745Z,19.70
2017-09-29T22:06:07.333Z,19.70
2017-09-29T22:08:35.665Z,19.60
2017-09-29T22:11:03.255Z,19.60
2017-09-29T22:13:31.586Z,19.50
2017-09-29T22:15:59.210Z,19.40
2017-09-29T22:18:27.688Z,19.40
2017-09-29T22:20:56.017Z,19.40
2017-09-29T22:23:23.624Z,19.30
2017-09-29T22:25:51.187Z,19.30
2017-09-29T22:28:18.913Z,19.30
2017-09-29T22:30:46.510Z,19.20
2017-09-29T22:33:14.094Z,19.20
2017-09-29T22:35:42.438Z,19.20
2017-09-29T22:38:10.068Z,19.20
2017-09-29T22:40:37.649Z,19.30
2017-09-29T22:43:05.270Z,19.20
2017-09-29T22:45:33.983Z,19.20
2017-09-29T22:48:01.583Z,19.20
2017-09-29T22:50:29.197Z,19.20
2017-09-29T22:52:57.497Z,19.20
2017-09-29T22:55:25.091Z,19.20
2017-09-29T22:57:52.683Z,19.20
2017-09-29T23:00:21.087Z,19.10
2017-09-29T23:02:48.698Z,19.10
2017-09-29T23:05:16.291Z,19.20
2017-09-29T23:07:44.616Z,19.20
2017-09-29T23:10:12.222Z,19.20
2017-09-29T23:12:39.805Z,19.20
2017-09-29T23:15:08.167Z,19.20
2017-09-29T23:17:36.558Z,19.20
2017-09-29T23:20:04.110Z,19.20
2017-09-29T23:22:32.457Z,19.20
2017-09-29T23:25:00.160Z,19.10
2017-09-29T23:27:28.536Z,19.00
2017-09-29T23:29:56.855Z,19.00
2017-09-29T23:32:24.410Z,18.90
2017-09-29T23:34:52.004Z,18.90
2017-09-29T23:37:19.573Z,18.80
2017-09-29T23:39:47.235Z,18.80
2017-09-29T23:42:14.799Z,18.70
2017-09-29T23:44:42.358Z,18.80
2017-09-29T23:47:10.123Z,18.80
2017-09-29T23:49:37.703Z,18.80
2017-09-29T23:52:05.297Z,18.80
2017-09-29T23:54:32.889Z,18.70
2017-09-29T23:57:00.491Z,18.70
2017-09-29T23:59:28.308Z,18.80
